Time;durP1;ratioP1;P1;durP2;ratioP2;P2;SDS_P1;SDS_P2;PMS_P1;PMS_P2;Temp;Humidity;BMP_temperature;BMP_pressure;BME280_temperature;BME280_humidity;BME280_pressure;Samples;Min_cycle;Max_cycle;Signal;HPM_P1;HPM_P2
2021/05/11 00:00:22;;;;;;;58.43;3.20;;;13.00;29.80;;;;;;5087998;28;20506;-66
2021/05/11 00:02:48;;;;;;;57.90;3.23;;;13.00;34.60;;;;;;5091697;28;20434;-66
2021/05/11 00:05:15;;;;;;;58.87;3.40;;;13.00;35.50;;;;;;5091506;28;20450;-66
2021/05/11 00:07:41;;;;;;;58.00;3.30;;;13.10;42.00;;;;;;5091870;28;20446;-65
2021/05/11 00:10:09;;;;;;;58.63;3.30;;;13.00;40.40;;;;;;5091419;28;20529;-66
2021/05/11 00:12:35;;;;;;;57.60;3.13;;;13.00;35.30;;;;;;5091225;28;20458;-66
2021/05/11 00:15:04;;;;;;;59.30;4.13;;;13.00;31.40;;;;;;5091492;28;20481;-66
2021/05/11 00:17:30;;;;;;;57.97;3.40;;;13.00;38.80;;;;;;5091636;28;20446;-66
2021/05/11 00:19:58;;;;;;;59.03;3.03;;;13.00;49.10;;;;;;5091696;28;20564;-65
2021/05/11 00:22:25;;;;;;;58.00;3.27;;;13.00;52.80;;;;;;5090929;28;20469;-66
2021/05/11 00:24:51;;;;;;;58.50;3.60;;;13.00;51.20;;;;;;5091252;28;21025;-66
2021/05/11 00:27:17;;;;;;;58.73;3.20;;;12.90;50.30;;;;;;5090605;28;21003;-66
2021/05/11 00:29:44;;;;;;;57.90;2.70;;;12.90;51.30;;;;;;5093227;28;20887;-66
2021/05/11 00:32:11;;;;;;;58.10;3.90;;;12.90;48.90;;;;;;5095234;28;20982;-66
2021/05/11 00:34:37;;;;;;;57.70;2.70;;;12.90;62.40;;;;;;5095412;28;20577;-66
2021/05/11 00:37:04;;;;;;;57.77;3.03;;;12.90;48.30;;;;;;5095474;28;20533;-66
2021/05/11 00:39:30;;;;;;;57.23;2.53;;;12.90;69.90;;;;;;5095784;28;20537;-66
2021/05/11 00:41:56;;;;;;;58.00;2.60;;;12.90;46.90;;;;;;5095044;28;20473;-66
2021/05/11 00:44:24;;;;;;;57.90;2.83;;;12.90;55.90;;;;;;5095481;28;20438;-65
2021/05/11 00:46:56;;;;;;;58.47;2.90;;;12.90;58.50;;;;;;5095868;28;20481;-66
2021/05/11 00:49:23;;;;;;;59.40;3.23;;;12.90;49.10;;;;;;5095457;28;20450;-67
2021/05/11 00:51:51;;;;;;;58.77;3.80;;;12.90;67.20;;;;;;5094795;28;20740;-65
2021/05/11 00:54:17;;;;;;;57.87;2.60;;;12.80;71.30;;;;;;5095528;28;20915;-65
2021/05/11 00:56:44;;;;;;;58.40;3.63;;;12.80;60.90;;;;;;5095559;28;20533;-66
2021/05/11 00:59:13;;;;;;;58.30;2.83;;;12.80;64.20;;;;;;5091889;28;20515;-65
2021/05/11 01:01:39;;;;;;;58.43;3.20;;;12.80;59.90;;;;;;5094748;28;20535;-65
2021/05/11 01:04:06;;;;;;;57.90;3.17;;;12.80;61.40;;;;;;5094563;28;20481;-66
2021/05/11 01:06:33;;;;;;;59.27;3.60;;;12.80;69.50;;;;;;5094956;28;20958;-65
2021/05/11 01:08:59;;;;;;;58.70;3.70;;;12.80;66.60;;;;;;5095209;28;20533;-66
2021/05/11 01:11:26;;;;;;;59.17;3.80;;;12.80;68.60;;;;;;5094887;28;21058;-66
2021/05/11 01:13:52;;;;;;;57.97;3.67;;;12.80;63.40;;;;;;5094513;28;20513;-66
2021/05/11 01:16:19;;;;;;;58.27;3.80;;;12.80;64.00;;;;;;5094936;28;20537;-66
2021/05/11 01:18:48;;;;;;;59.07;3.33;;;12.80;61.40;;;;;;5094650;28;21021;-66
2021/05/11 01:21:24;;;;;;;58.03;3.30;;;12.80;60.10;;;;;;5094902;28;20469;-66
2021/05/11 01:24:04;;;;;;;57.63;2.60;;;12.80;56.90;;;;;;5094271;28;20503;-66
2021/05/11 01:26:35;;;;;;;58.87;4.57;;;12.80;64.10;;;;;;5094694;28;20453;-66
2021/05/11 01:29:13;;;;;;;58.50;3.63;;;12.80;52.00;;;;;;5093416;28;20524;-65
2021/05/11 01:48:13;;;;;;;59.07;4.93;;;12.80;66.40;;;;;;5094205;28;20426;-65
2021/05/11 01:50:44;;;;;;;59.27;4.23;;;12.80;65.90;;;;;;5094592;28;20474;-65
2021/05/11 01:56:18;;;;;;;58.27;3.00;;;12.80;68.70;;;;;;5093757;28;20434;-66
2021/05/11 01:59:16;;;;;;;57.27;2.63;;;12.90;57.70;;;;;;5094060;28;20942;-66
2021/05/11 02:22:36;;;;;;;58.87;3.53;;;13.00;64.20;;;;;;5073434;28;20561;-66
2021/05/11 02:23:58;;;;;;;58.30;3.60;;;13.00;51.60;;;;;;5072842;28;20997;-65
2021/05/11 02:26:25;;;;;;;59.60;3.97;;;13.00;54.50;;;;;;5073285;28;20443;-65
2021/05/11 02:28:52;;;;;;;57.67;3.00;;;13.00;55.70;;;;;;5073423;28;20493;-65
2021/05/11 02:31:18;;;;;;;58.30;2.90;;;13.00;53.00;;;;;;5072549;28;20550;-66
2021/05/11 02:33:44;;;;;;;58.83;3.80;;;13.00;64.30;;;;;;5084646;28;20490;-66
2021/05/11 02:36:11;;;;;;;58.10;2.80;;;13.00;54.70;;;;;;5093271;28;20473;-66
2021/05/11 02:38:37;;;;;;;57.37;2.60;;;13.00;58.00;;;;;;5093102;28;20485;-65
2021/05/11 02:41:04;;;;;;;57.60;2.90;;;13.00;78.50;;;;;;5093244;28;20993;-66
2021/05/11 02:43:33;;;;;;;58.47;3.43;;;13.00;68.00;;;;;;5092700;28;20533;-66
2021/05/11 02:46:00;;;;;;;59.10;4.70;;;13.00;62.40;;;;;;5093252;28;20450;-66
2021/05/11 02:48:26;;;;;;;58.70;4.17;;;13.00;60.50;;;;;;5092932;28;20453;-66
2021/05/11 02:50:53;;;;;;;58.40;4.07;;;13.00;69.80;;;;;;5092788;28;20553;-66
2021/05/11 02:53:19;;;;;;;58.20;3.20;;;13.00;57.70;;;;;;5092429;28;20577;-66
2021/05/11 02:55:45;;;;;;;58.77;3.13;;;13.00;57.10;;;;;;5092920;28;20534;-66
2021/05/11 02:58:12;;;;;;;58.27;3.33;;;13.00;39.10;;;;;;5093085;28;20532;-67
2021/05/11 03:00:39;;;;;;;57.47;3.03;;;13.00;50.40;;;;;;5092724;28;20458;-66
2021/05/11 03:03:06;;;;;;;56.97;2.40;;;13.00;46.90;;;;;;5090640;28;20523;-66
2021/05/11 03:05:33;;;;;;;58.90;4.43;;;13.00;48.80;;;;;;5074288;28;20824;-66
2021/05/11 03:07:59;;;;;;;59.07;3.03;;;13.00;46.90;;;;;;5092894;28;20825;-66
2021/05/11 03:10:26;;;;;;;59.00;4.20;;;13.00;43.10;;;;;;5092674;28;20470;-65
2021/05/11 03:12:52;;;;;;;57.50;2.53;;;13.00;41.30;;;;;;5092415;28;20440;-66
2021/05/11 03:15:19;;;;;;;57.97;3.23;;;13.00;46.20;;;;;;5092177;28;20543;-66
2021/05/11 03:17:45;;;;;;;57.87;3.67;;;13.00;62.60;;;;;;5092466;28;20476;-66
2021/05/11 03:20:13;;;;;;;57.27;2.40;;;13.00;47.20;;;;;;5092407;28;20448;-66
2021/05/11 03:22:40;;;;;;;59.80;4.13;;;13.00;47.10;;;;;;5092294;28;20558;-66
2021/05/11 03:25:08;;;;;;;58.70;3.43;;;13.00;49.80;;;;;;5092774;28;20453;-66
2021/05/11 03:27:34;;;;;;;58.87;4.53;;;13.00;51.80;;;;;;5093207;28;20457;-65
2021/05/11 03:30:01;;;;;;;64.50;3.17;;;13.00;43.70;;;;;;5092520;28;20481;-65
2021/05/11 03:32:27;;;;;;;57.93;3.10;;;13.00;60.30;;;;;;5091872;28;20481;-65
2021/05/11 03:34:53;;;;;;;58.63;3.13;;;13.00;53.50;;;;;;5084734;28;20585;-66
2021/05/11 03:37:21;;;;;;;59.93;4.93;;;13.00;47.30;;;;;;5079399;28;20557;-66
2021/05/11 03:39:47;;;;;;;58.60;3.73;;;13.00;37.10;;;;;;5092237;28;20537;-65
2021/05/11 03:42:17;;;;;;;58.87;4.67;;;13.00;48.80;;;;;;5091754;28;20559;-65
2021/05/11 03:44:46;;;;;;;59.50;3.70;;;12.90;44.10;;;;;;5091534;28;20449;-65
2021/05/11 03:47:15;;;;;;;60.07;3.40;;;13.00;41.50;;;;;;5091963;28;20965;-65
2021/05/11 03:49:41;;;;;;;58.63;4.00;;;12.90;48.70;;;;;;5091839;28;20453;-65
2021/05/11 03:52:08;;;;;;;58.23;2.80;;;13.00;52.30;;;;;;5091512;28;20818;-65
2021/05/11 03:54:36;;;;;;;58.40;3.63;;;12.90;66.50;;;;;;5091679;28;20565;-65
2021/05/11 03:57:02;;;;;;;60.20;4.10;;;12.90;74.50;;;;;;5091645;28;20442;-65
2021/05/11 03:59:29;;;;;;;58.47;3.70;;;13.00;47.10;;;;;;5091913;28;20573;-65
2021/05/11 04:01:55;;;;;;;59.53;4.37;;;13.00;45.80;;;;;;5091447;28;20470;-65
2021/05/11 04:04:22;;;;;;;58.50;3.30;;;13.00;52.70;;;;;;5091409;28;20440;-65
2021/05/11 04:06:48;;;;;;;58.97;3.53;;;13.00;52.10;;;;;;5088201;28;20455;-65
2021/05/11 04:09:20;;;;;;;59.30;3.63;;;13.00;44.90;;;;;;5078329;28;20546;-65
2021/05/11 04:17:30;;;;;;;58.57;3.83;;;13.10;59.20;;;;;;5071468;28;20427;-65
2021/05/11 04:19:57;;;;;;;58.20;3.37;;;13.10;67.50;;;;;;5071265;28;20447;-65
2021/05/11 04:22:23;;;;;;;58.17;4.07;;;13.00;70.10;;;;;;5071082;28;20603;-65
2021/05/11 04:24:49;;;;;;;58.57;3.03;;;13.10;69.40;;;;;;5071342;28;20435;-66
2021/05/11 04:27:17;;;;;;;57.33;2.50;;;13.10;69.30;;;;;;5071543;28;20477;-65
2021/05/11 04:29:43;;;;;;;59.87;4.10;;;13.20;68.10;;;;;;5071153;28;20959;-65
2021/05/11 04:32:10;;;;;;;57.77;3.23;;;13.20;49.10;;;;;;5070758;28;20471;-65
2021/05/11 04:34:36;;;;;;;58.97;5.13;;;13.20;43.90;;;;;;5070890;28;20492;-65
2021/05/11 04:37:03;;;;;;;58.20;3.57;;;13.30;55.30;;;;;;5069907;28;20482;-65
2021/05/11 04:39:29;;;;;;;59.70;4.40;;;13.30;58.20;;;;;;5086376;28;20491;-65
2021/05/11 04:41:55;;;;;;;58.13;3.30;;;13.30;53.60;;;;;;5070824;28;20555;-65
2021/05/11 04:44:27;;;;;;;58.20;3.20;;;13.40;51.80;;;;;;5071100;28;20531;-65
2021/05/11 04:46:59;;;;;;;57.87;3.63;;;13.40;58.60;;;;;;5071294;28;20447;-65
2021/05/11 04:49:25;;;;;;;59.70;2.93;;;13.40;52.20;;;;;;5070951;28;20800;-65
2021/05/11 04:51:52;;;;;;;58.00;2.90;;;13.40;54.20;;;;;;5070785;28;20517;-65
2021/05/11 04:54:18;;;;;;;58.63;2.77;;;13.40;50.00;;;;;;5070793;28;20489;-65
2021/05/11 04:56:45;;;;;;;60.00;3.27;;;13.40;44.30;;;;;;5070902;28;20443;-65
2021/05/11 04:59:12;;;;;;;61.20;4.50;;;13.40;52.50;;;;;;5070834;28;20931;-65
2021/05/11 05:01:39;;;;;;;57.70;2.97;;;13.40;51.80;;;;;;5070907;28;20558;-66
2021/05/11 05:04:08;;;;;;;59.10;3.37;;;13.40;47.80;;;;;;5070504;28;20447;-65
2021/05/11 05:06:35;;;;;;;60.47;3.87;;;13.50;41.80;;;;;;5071043;28;20490;-66
2021/05/11 05:09:02;;;;;;;57.60;2.73;;;13.50;41.90;;;;;;5067649;28;20538;-66
2021/05/11 05:11:28;;;;;;;60.83;3.10;;;13.50;42.70;;;;;;5079262;28;20478;-66
2021/05/11 05:13:54;;;;;;;58.87;4.43;;;13.50;47.40;;;;;;5090429;28;20482;-66
2021/05/11 05:16:21;;;;;;;59.50;4.37;;;13.50;45.60;;;;;;5093892;28;20545;-66
2021/05/11 05:18:48;;;;;;;58.20;3.50;;;13.60;50.90;;;;;;5095119;28;20591;-64
2021/05/11 05:21:14;;;;;;;58.80;3.87;;;13.60;39.00;;;;;;5094925;28;20494;-65
2021/05/11 05:23:44;;;;;;;60.47;4.83;;;13.60;45.60;;;;;;5094006;28;20446;-65
2021/05/11 05:26:11;;;;;;;57.60;2.80;;;13.60;43.90;;;;;;5094533;28;20506;-65
2021/05/11 05:28:39;;;;;;;58.00;3.10;;;13.70;42.30;;;;;;5094583;28;20450;-65
2021/05/11 05:31:06;;;;;;;60.23;4.23;;;13.70;39.60;;;;;;5094414;28;20505;-65
2021/05/11 05:33:34;;;;;;;57.30;2.80;;;13.80;44.40;;;;;;5093934;28;20581;-65
2021/05/11 05:36:01;;;;;;;58.53;3.13;;;13.70;38.00;;;;;;5094437;28;20482;-66
2021/05/11 05:38:28;;;;;;;58.37;4.10;;;13.80;25.10;;;;;;5094626;28;20525;-66
2021/05/11 05:40:58;;;;;;;57.30;3.17;;;13.80;42.70;;;;;;5090860;28;20998;-66
2021/05/11 05:43:25;;;;;;;57.97;2.93;;;13.80;29.40;;;;;;5093793;28;20456;-65
2021/05/11 05:45:53;;;;;;;59.60;3.87;;;13.80;20.30;;;;;;5094172;28;20884;-66
2021/05/11 05:48:20;;;;;;;58.93;3.67;;;13.80;13.40;;;;;;5094408;28;20446;-66
2021/05/11 05:50:49;;;;;;;59.77;3.40;;;13.70;46.10;;;;;;5094162;28;20533;-65
2021/05/11 05:53:23;;;;;;;57.67;3.00;;;13.70;40.80;;;;;;5094275;28;20450;-66
2021/05/11 05:55:50;;;;;;;58.80;4.20;;;13.70;36.50;;;;;;5093733;28;20533;-66
2021/05/11 05:58:16;;;;;;;58.90;4.33;;;13.70;21.30;;;;;;5094173;28;20533;-66
2021/05/11 06:00:43;;;;;;;59.77;4.07;;;13.70;38.30;;;;;;5094167;28;20588;-65
2021/05/11 06:03:19;;;;;;;57.70;3.17;;;13.70;47.60;;;;;;5093891;28;20446;-66
2021/05/11 06:05:45;;;;;;;57.97;3.40;;;13.70;24.20;;;;;;5093683;28;20895;-65
2021/05/11 06:08:11;;;;;;;58.23;4.10;;;13.70;16.40;;;;;;5093913;28;20894;-66
2021/05/11 06:10:38;;;;;;;58.70;3.10;;;13.70;16.40;;;;;;5091042;28;21254;-65
2021/05/11 06:13:09;;;;;;;58.00;2.97;;;13.70;25.40;;;;;;5093434;28;20531;-66
2021/05/11 06:18:20;;;;;;;58.37;2.87;;;13.80;16.80;;;;;;5093719;28;20487;-66
2021/05/11 06:20:46;;;;;;;58.17;3.83;;;13.80;18.30;;;;;;5093512;28;20526;-65
2021/05/11 06:23:13;;;;;;;59.40;3.27;;;13.90;15.80;;;;;;5093629;28;21022;-65
2021/05/11 06:25:44;;;;;;;57.90;2.97;;;13.90;27.90;;;;;;5093293;28;20525;-65
2021/05/11 06:28:10;;;;;;;59.30;4.57;;;13.90;33.50;;;;;;5093567;28;20453;-67
2021/05/11 06:30:37;;;;;;;57.37;2.60;;;14.00;32.80;;;;;;5093392;28;20498;-65
2021/05/11 06:33:05;;;;;;;59.40;3.53;;;14.10;11.00;;;;;;5093075;28;20442;-66
2021/05/11 06:35:32;;;;;;;60.53;3.37;;;14.10;1.00;;;;;;5092743;28;20533;-66
2021/05/11 06:37:59;;;;;;;58.17;3.60;;;14.20;11.30;;;;;;5093047;28;20458;-66
2021/05/11 06:40:26;;;;;;;58.67;2.90;;;14.30;1.00;;;;;;5093113;28;20914;-65
2021/05/11 06:42:54;;;;;;;59.77;3.63;;;14.30;13.40;;;;;;5092966;28;20457;-66
2021/05/11 06:46:02;;;;;;;58.17;2.73;;;14.40;1.70;;;;;;5092937;28;20529;-66
2021/05/11 06:48:22;;;;;;;57.70;2.80;;;14.40;1.00;;;;;;5092792;28;20442;-66
2021/05/11 06:53:36;;;;;;;58.07;2.90;;;14.50;4.20;;;;;;5092319;28;20492;-66
2021/05/11 06:56:04;;;;;;;57.50;2.80;;;14.60;1.80;;;;;;5092793;28;20446;-65
2021/05/11 06:58:31;;;;;;;57.40;2.60;;;14.60;1.00;;;;;;5092624;28;20454;-65
2021/05/11 07:00:57;;;;;;;57.90;3.37;;;14.60;1.00;;;;;;5092943;28;20994;-66
2021/05/11 07:03:24;;;;;;;60.97;5.27;;;14.60;1.00;;;;;;5092590;28;20443;-65
2021/05/11 07:05:52;;;;;;;57.67;3.20;;;14.60;1.00;;;;;;5092512;28;21081;-66
2021/05/11 07:08:24;;;;;;;57.70;3.37;;;14.60;1.00;;;;;;5093061;28;20462;-65
2021/05/11 07:10:52;;;;;;;58.20;3.23;;;14.60;1.00;;;;;;5092594;28;20483;-66
2021/05/11 07:13:18;;;;;;;59.90;3.60;;;14.60;1.00;;;;;;5092241;28;20486;-65
2021/05/11 07:15:46;;;;;;;57.87;2.97;;;14.70;1.00;;;;;;5092431;28;20489;-65
2021/05/11 07:18:15;;;;;;;58.10;3.40;;;14.70;1.00;;;;;;5092365;28;20454;-65
2021/05/11 07:20:43;;;;;;;59.60;3.43;;;14.80;1.00;;;;;;5092422;28;20550;-66
2021/05/11 07:23:10;;;;;;;57.60;2.83;;;14.90;1.00;;;;;;5092257;28;20452;-65
2021/05/11 07:25:42;;;;;;;58.00;3.27;;;14.90;1.00;;;;;;5091340;28;20482;-66
2021/05/11 07:31:03;;;;;;;57.40;3.13;;;14.90;1.00;;;;;;5091923;28;20978;-66
2021/05/11 07:33:33;;;;;;;57.10;2.57;;;14.90;1.00;;;;;;5091737;28;20989;-66
2021/05/11 07:35:59;;;;;;;57.30;2.57;;;14.90;1.00;;;;;;5091888;28;20505;-65
2021/05/11 07:38:26;;;;;;;58.87;3.90;;;14.90;1.00;;;;;;5091592;28;20478;-65
2021/05/11 07:40:53;;;;;;;59.07;3.27;;;14.90;1.00;;;;;;5092016;28;20472;-66
2021/05/11 07:43:20;;;;;;;57.47;2.90;;;15.00;1.00;;;;;;5091840;28;20446;-65
2021/05/11 07:46:06;;;;;;;58.67;4.67;;;15.00;1.00;;;;;;5091859;28;20447;-66
2021/05/11 08:02:30;;;;;;;58.30;3.90;;;15.40;1.00;;;;;;5090851;28;20519;-66
2021/05/11 08:05:02;;;;;;;58.10;2.70;;;15.50;1.00;;;;;;5091353;28;20476;-66
2021/05/11 08:10:26;;;;;;;57.37;2.60;;;15.80;1.00;;;;;;5091593;28;20423;-66
2021/05/11 08:15:38;;;;;;;57.90;3.57;;;15.90;1.00;;;;;;5091434;28;20561;-65
2021/05/11 08:18:12;;;;;;;58.00;3.00;;;15.80;1.00;;;;;;5091840;28;20447;-66
2021/05/11 08:23:35;;;;;;;58.17;2.83;;;15.90;1.00;;;;;;5091062;28;20892;-66
2021/05/11 08:28:42;;;;;;;58.57;2.90;;;16.00;1.00;;;;;;5046907;28;20521;-66
2021/05/11 08:31:08;;;;;;;58.90;3.30;;;16.00;1.00;;;;;;5091660;28;20510;-66
2021/05/11 08:33:35;;;;;;;59.80;3.43;;;16.10;1.00;;;;;;5091106;28;20498;-66
2021/05/11 08:36:02;;;;;;;58.30;3.40;;;16.20;1.00;;;;;;5091697;28;20450;-67
2021/05/11 08:38:29;;;;;;;57.47;2.93;;;16.20;1.00;;;;;;5091366;28;20448;-66
2021/05/11 08:40:55;;;;;;;58.07;2.93;;;16.30;1.00;;;;;;5091576;28;20463;-66
2021/05/11 08:43:28;;;;;;;57.57;2.70;;;16.40;1.00;;;;;;5090930;28;20551;-66
2021/05/11 08:45:54;;;;;;;57.57;2.90;;;16.50;1.00;;;;;;5091457;28;20823;-66
2021/05/11 08:48:21;;;;;;;57.60;2.67;;;16.60;1.00;;;;;;5091437;28;21014;-66
2021/05/11 08:50:54;;;;;;;58.27;2.47;;;16.70;1.00;;;;;;5095303;28;20602;-66
2021/05/11 09:04:38;;;;;;;57.30;2.53;;;17.30;1.00;;;;;;5095121;28;20458;-66
2021/05/11 09:24:01;;;;;;;57.33;2.80;;;17.40;1.00;;;;;;5060431;28;20440;-66
2021/05/11 09:26:38;;;;;;;57.90;2.77;;;17.30;1.00;;;;;;5094575;28;20447;-66
2021/05/11 09:29:11;;;;;;;57.87;3.20;;;17.30;1.00;;;;;;5094518;28;20549;-66
2021/05/11 09:31:52;;;;;;;57.90;3.00;;;17.30;1.00;;;;;;5094546;28;20478;-66
2021/05/11 09:34:25;;;;;;;58.20;3.70;;;17.30;1.00;;;;;;5094475;28;20890;-66
2021/05/11 09:50:54;;;;;;;57.90;2.70;;;17.80;1.00;;;;;;5094135;28;20429;-65
2021/05/11 09:56:56;;;;;;;57.80;2.60;;;18.10;1.00;;;;;;5094158;28;20448;-65
2021/05/11 10:48:29;;;;;;;57.07;2.30;;;18.60;1.00;;;;;;5093004;28;20944;-66
2021/05/11 10:50:58;;;;;;;58.20;2.70;;;18.70;1.00;;;;;;5092925;28;20477;-66
2021/05/11 10:53:42;;;;;;;57.60;3.00;;;18.80;1.00;;;;;;5092658;28;20603;-66
2021/05/11 10:56:43;;;;;;;57.27;2.97;;;18.90;1.00;;;;;;5092623;28;20480;-66
2021/05/11 10:59:25;;;;;;;57.37;2.80;;;18.90;1.00;;;;;;5029271;28;20458;-66
2021/05/11 11:01:56;;;;;;;58.00;3.00;;;18.90;1.00;;;;;;5083749;28;20479;-66
2021/05/11 11:04:23;;;;;;;57.70;2.93;;;18.80;1.00;;;;;;5092468;28;20806;-66
2021/05/11 11:07:08;;;;;;;57.57;2.70;;;18.70;1.00;;;;;;5092770;28;20941;-66
2021/05/11 11:09:36;;;;;;;58.00;2.60;;;18.60;1.00;;;;;;5092559;28;21045;-66
2021/05/11 11:12:04;;;;;;;57.17;2.60;;;18.50;1.00;;;;;;5091651;28;20565;-66
2021/05/11 11:14:38;;;;;;;57.37;2.73;;;18.50;1.00;;;;;;5091963;28;20930;-66
2021/05/11 11:17:06;;;;;;;57.50;2.73;;;18.60;1.00;;;;;;5092451;28;21037;-66
2021/05/11 11:19:32;;;;;;;57.80;3.20;;;18.60;1.00;;;;;;5092522;28;20482;-66
2021/05/11 11:24:47;;;;;;;59.00;3.57;;;18.60;1.00;;;;;;5092068;28;20445;-66
2021/05/11 11:27:13;;;;;;;58.00;2.73;;;18.60;1.00;;;;;;5092126;28;20819;-66
2021/05/11 11:29:42;;;;;;;58.00;2.97;;;18.60;1.00;;;;;;5092377;28;20855;-66
2021/05/11 11:32:09;;;;;;;58.83;2.90;;;18.60;1.00;;;;;;5089448;28;20481;-66
2021/05/11 11:34:36;;;;;;;57.70;2.90;;;18.70;1.00;;;;;;5075779;28;20565;-66
2021/05/11 11:37:04;;;;;;;57.97;2.53;;;18.90;1.00;;;;;;5071905;28;20465;-66
2021/05/11 11:39:32;;;;;;;58.10;2.60;;;19.10;1.00;;;;;;5071662;28;20455;-66
2021/05/11 11:42:00;;;;;;;57.87;2.93;;;19.30;1.00;;;;;;5071518;28;20841;-66
2021/05/11 11:44:31;;;;;;;58.00;3.00;;;19.50;1.00;;;;;;5071953;28;20469;-66
2021/05/11 11:47:01;;;;;;;58.33;3.47;;;19.60;1.00;;;;;;5072017;28;20537;-66
2021/05/11 11:49:29;;;;;;;57.60;2.87;;;19.60;1.00;;;;;;5072127;28;20512;-66
2021/05/11 11:52:00;;;;;;;58.53;3.13;;;19.50;1.00;;;;;;5071365;28;20503;-66
2021/05/11 11:54:33;;;;;;;59.20;3.50;;;19.40;1.00;;;;;;5071341;28;20489;-66
2021/05/11 11:59:55;;;;;;;57.60;2.90;;;19.20;1.00;;;;;;5088998;28;21168;-65
2021/05/11 12:02:22;;;;;;;57.70;3.10;;;19.10;1.00;;;;;;5091310;28;20501;-65
2021/05/11 12:04:48;;;;;;;57.90;3.60;;;19.00;1.00;;;;;;5091563;28;20482;-65
2021/05/11 12:07:17;;;;;;;57.90;2.93;;;19.00;1.00;;;;;;5091938;28;20450;-66
2021/05/11 12:09:46;;;;;;;58.20;3.33;;;18.80;1.00;;;;;;5091688;28;20482;-65
2021/05/11 12:12:15;;;;;;;58.30;3.33;;;18.70;1.00;;;;;;5091337;28;20535;-65
2021/05/11 12:14:42;;;;;;;57.67;3.50;;;18.70;1.00;;;;;;5091631;28;20576;-65
2021/05/11 12:17:09;;;;;;;58.23;3.27;;;18.60;1.00;;;;;;5091478;28;20569;-65
2021/05/11 12:19:42;;;;;;;59.97;4.40;;;18.60;1.00;;;;;;5091520;28;20822;-66
2021/05/11 12:22:08;;;;;;;59.30;4.17;;;18.60;1.00;;;;;;5091408;28;20466;-66
2021/05/11 12:24:36;;;;;;;58.40;4.50;;;18.70;1.00;;;;;;5091239;28;20442;-66
2021/05/11 12:27:19;;;;;;;57.90;3.10;;;18.90;1.00;;;;;;5091517;28;20587;-65
2021/05/11 12:29:58;;;;;;;58.07;3.57;;;19.10;1.00;;;;;;5091415;28;20449;-66
2021/05/11 12:32:25;;;;;;;58.30;3.23;;;19.20;1.00;;;;;;5091046;28;20503;-66
2021/05/11 12:35:04;;;;;;;58.37;3.47;;;19.30;1.00;;;;;;5091455;28;20614;-66
2021/05/11 12:37:44;;;;;;;57.50;2.67;;;19.20;1.00;;;;;;5091602;28;20553;-65
2021/05/11 12:40:22;;;;;;;58.20;3.17;;;19.10;1.00;;;;;;5091434;28;21215;-65
2021/05/11 12:42:49;;;;;;;58.83;3.00;;;19.00;1.00;;;;;;5091151;28;20986;-65
2021/05/11 12:45:16;;;;;;;57.50;2.73;;;18.90;1.00;;;;;;5091237;28;20537;-66
2021/05/11 12:47:46;;;;;;;57.07;2.40;;;18.90;1.00;;;;;;5091310;28;20481;-65
2021/05/11 12:50:17;;;;;;;57.60;2.80;;;18.90;1.00;;;;;;5091241;28;20506;-65
2021/05/11 12:52:45;;;;;;;58.23;3.13;;;18.90;1.00;;;;;;5090982;28;20459;-65
2021/05/11 12:55:19;;;;;;;58.00;3.03;;;19.00;1.00;;;;;;5090864;28;20474;-65
2021/05/11 12:57:54;;;;;;;58.57;3.73;;;19.00;1.00;;;;;;5091451;28;20458;-65
2021/05/11 13:00:35;;;;;;;58.47;3.50;;;19.00;1.00;;;;;;5091352;28;20449;-66
2021/05/11 13:03:15;;;;;;;57.77;2.90;;;18.90;1.00;;;;;;5090755;28;20450;-66
2021/05/11 13:14:24;;;;;;;58.23;3.67;;;18.80;1.00;;;;;;5090485;28;20426;-65
2021/05/11 13:16:58;;;;;;;58.10;3.90;;;18.70;1.00;;;;;;5091016;28;20527;-65
2021/05/11 13:22:23;;;;;;;58.10;3.20;;;18.40;1.00;;;;;;5090724;28;20558;-66
2021/05/11 13:27:53;;;;;;;60.00;4.57;;;18.00;1.00;;;;;;5008835;28;20430;-65
2021/05/11 13:30:41;;;;;;;58.17;3.30;;;17.90;1.00;;;;;;5074814;28;21055;-66
2021/05/11 13:33:23;;;;;;;57.77;3.00;;;17.70;1.00;;;;;;5090682;28;20464;-66
2021/05/11 13:35:49;;;;;;;57.30;2.70;;;17.50;1.00;;;;;;5091194;28;20480;-66
2021/05/11 13:38:16;;;;;;;57.60;2.80;;;17.30;1.00;;;;;;5094473;28;21079;-67
2021/05/11 13:40:42;;;;;;;57.30;2.60;;;17.10;1.00;;;;;;5094289;28;20827;-65
2021/05/11 13:43:09;;;;;;;57.80;3.03;;;17.00;1.00;;;;;;5094366;28;20448;-66
2021/05/11 13:45:35;;;;;;;57.80;3.00;;;16.80;1.00;;;;;;5094070;28;20527;-66
2021/05/11 13:48:03;;;;;;;57.50;3.40;;;16.60;1.00;;;;;;5094402;28;20546;-65
2021/05/11 13:50:54;;;;;;;59.50;3.63;;;16.40;1.00;;;;;;5094268;28;20524;-66
2021/05/11 13:53:23;;;;;;;57.90;3.00;;;16.20;1.00;;;;;;5093892;28;20448;-66
2021/05/11 13:55:59;;;;;;;58.00;3.63;;;16.00;1.00;;;;;;5094006;28;20479;-66
2021/05/11 14:03:54;;;;;;;58.20;3.53;;;15.70;1.00;;;;;;5093590;28;20715;-66
2021/05/11 14:06:22;;;;;;;58.17;3.30;;;15.60;1.00;;;;;;5094109;28;20556;-66
2021/05/11 14:08:48;;;;;;;57.50;2.90;;;15.50;1.00;;;;;;5092081;28;20495;-65
2021/05/11 14:11:15;;;;;;;57.47;3.03;;;15.40;1.00;;;;;;5093005;28;20549;-65
2021/05/11 14:13:41;;;;;;;59.27;3.60;;;15.40;1.00;;;;;;5093266;28;20666;-66
2021/05/11 14:16:08;;;;;;;57.70;3.00;;;15.40;1.00;;;;;;5093668;28;20475;-65
2021/05/11 14:18:34;;;;;;;57.47;2.60;;;15.30;1.00;;;;;;5093871;28;20486;-65
2021/05/11 14:21:01;;;;;;;58.43;3.37;;;15.30;1.00;;;;;;5093781;28;20499;-65
2021/05/11 14:23:28;;;;;;;57.80;2.70;;;15.20;1.00;;;;;;5093205;28;20444;-65
2021/05/11 14:25:55;;;;;;;57.53;2.90;;;15.20;1.00;;;;;;5093539;28;20856;-65
2021/05/11 14:28:21;;;;;;;57.33;2.80;;;15.20;1.00;;;;;;5093480;28;20891;-65
2021/05/11 14:30:48;;;;;;;57.80;3.40;;;15.10;1.00;;;;;;5093695;28;20551;-65
2021/05/11 14:33:14;;;;;;;57.57;2.50;;;15.10;1.00;;;;;;5093294;28;20530;-66
2021/05/11 14:35:40;;;;;;;57.97;2.90;;;15.00;1.00;;;;;;5093087;28;20525;-66
2021/05/11 14:38:07;;;;;;;57.60;2.80;;;15.00;1.00;;;;;;5093201;28;20604;-66
2021/05/11 14:40:34;;;;;;;57.17;2.40;;;15.00;1.00;;;;;;5089686;28;20557;-66
2021/05/11 14:43:00;;;;;;;57.90;3.03;;;15.00;1.00;;;;;;5092562;28;20825;-66
2021/05/11 14:45:27;;;;;;;57.60;2.30;;;15.00;1.00;;;;;;5093154;28;20521;-66
2021/05/11 14:47:53;;;;;;;57.47;2.50;;;14.90;1.00;;;;;;5093288;28;20436;-66
2021/05/11 14:50:22;;;;;;;57.30;2.30;;;14.90;1.00;;;;;;5093239;28;20586;-65
2021/05/11 14:52:52;;;;;;;57.40;2.37;;;14.80;1.00;;;;;;5092834;28;20538;-66
2021/05/11 14:55:20;;;;;;;57.17;2.30;;;14.80;1.00;;;;;;5092785;28;20555;-66
2021/05/11 14:57:48;;;;;;;57.27;2.30;;;14.70;1.00;;;;;;5092909;28;20466;-66
2021/05/11 15:00:15;;;;;;;57.03;2.30;;;14.60;1.00;;;;;;5092937;28;20478;-66
2021/05/11 15:02:41;;;;;;;57.27;2.50;;;14.50;1.00;;;;;;5092751;28;20443;-66
2021/05/11 15:05:08;;;;;;;57.80;2.70;;;14.40;1.00;;;;;;5093142;28;20538;-66
2021/05/11 15:07:35;;;;;;;57.20;2.40;;;14.30;1.00;;;;;;5093008;28;20533;-66
2021/05/11 15:10:01;;;;;;;57.27;2.40;;;14.30;1.00;;;;;;5092546;28;20528;-66
2021/05/11 15:12:27;;;;;;;57.97;2.60;;;14.20;1.00;;;;;;5089928;28;20478;-66
2021/05/11 15:14:55;;;;;;;57.00;2.30;;;14.20;1.00;;;;;;5074024;28;20522;-66
2021/05/11 15:20:07;;;;;;;57.30;2.43;;;14.20;1.00;;;;;;5072567;28;20424;-67
2021/05/11 15:22:33;;;;;;;57.17;2.40;;;14.10;1.00;;;;;;5071676;28;20534;-66
2021/05/11 15:24:59;;;;;;;57.37;2.40;;;14.10;1.00;;;;;;5072209;28;20526;-67
2021/05/11 15:27:26;;;;;;;57.37;2.60;;;14.10;1.00;;;;;;5072245;28;20538;-66
2021/05/11 15:29:52;;;;;;;57.50;2.80;;;14.00;1.00;;;;;;5072257;28;20499;-66
2021/05/11 15:32:40;;;;;;;57.57;2.50;;;14.00;10.20;;;;;;5071747;28;20495;-67
2021/05/11 15:35:08;;;;;;;57.20;2.57;;;14.00;18.40;;;;;;5071684;28;20982;-67
2021/05/11 15:37:34;;;;;;;57.70;2.83;;;14.00;26.90;;;;;;5072245;28;20912;-67
2021/05/11 15:40:01;;;;;;;57.27;2.43;;;13.90;20.30;;;;;;5071856;28;21038;-67
2021/05/11 15:42:27;;;;;;;57.40;2.47;;;13.80;28.20;;;;;;5074617;28;21044;-67
2021/05/11 15:44:54;;;;;;;57.90;2.63;;;13.70;29.40;;;;;;5091813;28;20445;-67
2021/05/11 15:47:20;;;;;;;57.47;2.50;;;13.70;31.80;;;;;;5092542;28;20588;-66
2021/05/11 15:49:47;;;;;;;57.17;2.27;;;13.60;30.60;;;;;;5091880;28;20482;-67
2021/05/11 15:52:13;;;;;;;57.83;2.40;;;13.50;31.20;;;;;;5091446;28;20494;-67
2021/05/11 15:54:40;;;;;;;57.33;2.47;;;13.50;31.50;;;;;;5091762;28;20547;-68
2021/05/11 15:57:07;;;;;;;57.17;2.50;;;13.40;42.90;;;;;;5091915;28;20447;-67
2021/05/11 15:59:33;;;;;;;57.47;2.70;;;13.40;49.00;;;;;;5091305;28;20942;-68
2021/05/11 16:02:00;;;;;;;57.43;2.60;;;13.30;63.30;;;;;;5091357;28;21010;-68
2021/05/11 16:04:27;;;;;;;57.27;2.43;;;13.30;52.30;;;;;;5091487;28;20942;-68
2021/05/11 16:06:54;;;;;;;57.47;2.60;;;13.20;71.70;;;;;;5091582;28;20544;-69
2021/05/11 16:09:22;;;;;;;57.23;2.60;;;13.20;78.20;;;;;;5091851;28;20443;-69